Terminal Aerodrome Forecast
Issued by NWS

Home | Current Version | Previous Version | Text Only | Print | Product List | Glossary On
Versions: 1 2 3 4 5 6 7 8 9 10 11 12 13
000
FTUS42 KTAE 271120
TAFECP
TAF
KECP 271120Z 2712/2812 06003KT P6SM SCT010 SCT250
     FM271700 VRB15G25KT 2SM TSRA SCT020 BKN050CB
     FM272100 11007KT P6SM VCTS SCT050CB BKN250
     FM280200 00000KT P6SM BKN250=

USA.gov is the U.S. government's official web portal to all federal, state and local government web resources and services.